createdAt,value
2023-03-26T00:01:50.968Z,8.00
2023-03-26T00:04:42.747Z,8.60
2023-03-26T00:07:33.578Z,9.50
2023-03-26T00:10:25.449Z,7.40
2023-03-26T00:13:16.101Z,8.40
2023-03-26T00:16:08.853Z,6.00
2023-03-26T00:18:59.984Z,6.80
2023-03-26T00:21:51.768Z,5.40
2023-03-26T00:24:45.989Z,7.10
2023-03-26T00:27:37.035Z,4.90
2023-03-26T00:30:27.725Z,5.80
2023-03-26T00:33:18.546Z,6.30
2023-03-26T00:36:11.256Z,5.40
2023-03-26T00:39:05.259Z,7.00
2023-03-26T00:41:55.862Z,5.80
2023-03-26T00:44:46.615Z,6.70
2023-03-26T00:47:37.235Z,8.90
2023-03-26T00:50:27.902Z,5.70
2023-03-26T00:53:20.120Z,7.10
2023-03-26T00:56:11.606Z,6.50
2023-03-26T00:59:01.966Z,6.70
2023-03-26T01:01:57.194Z,6.90
2023-03-26T01:04:49.428Z,6.30
2023-03-26T01:07:40.013Z,6.70
2023-03-26T01:10:38.750Z,7.40
2023-03-26T01:13:29.978Z,6.50
2023-03-26T01:16:27.492Z,6.70
2023-03-26T01:19:34.494Z,6.30
2023-03-26T01:22:26.422Z,8.80
2023-03-26T01:25:17.145Z,6.40
2023-03-26T01:28:08.859Z,6.80
2023-03-26T01:31:01.429Z,7.20
2023-03-26T01:33:55.845Z,6.70
2023-03-26T01:36:49.186Z,6.40
2023-03-26T01:39:41.717Z,6.10
2023-03-26T01:42:37.053Z,8.00
2023-03-26T01:45:29.362Z,6.30
2023-03-26T01:48:21.119Z,6.90
2023-03-26T01:51:11.865Z,6.70
2023-03-26T01:54:02.466Z,7.40
2023-03-26T01:57:00.011Z,6.60
2023-03-26T01:59:58.991Z,6.40
2023-03-26T02:03:06.175Z,7.80
2023-03-26T02:05:58.978Z,7.80
2023-03-26T02:08:52.357Z,6.80
2023-03-26T02:11:43.081Z,7.80
2023-03-26T02:14:34.367Z,8.20
2023-03-26T02:17:25.330Z,6.10
2023-03-26T02:20:16.487Z,6.50
2023-03-26T02:23:09.199Z,8.20
2023-03-26T02:26:00.642Z,6.80
2023-03-26T02:28:51.601Z,9.30
2023-03-26T02:31:43.574Z,7.20
2023-03-26T02:34:34.226Z,6.80
2023-03-26T02:37:24.933Z,6.80
2023-03-26T02:40:21.293Z,10.20
2023-03-26T02:43:12.151Z,8.50
2023-03-26T02:46:03.794Z,7.10
2023-03-26T02:49:12.609Z,7.60
2023-03-26T02:52:06.726Z,7.10
2023-03-26T02:54:58.777Z,6.00
2023-03-26T02:57:50.650Z,6.20
2023-03-26T03:00:47.366Z,6.40
2023-03-26T03:03:49.528Z,5.90
2023-03-26T03:06:57.598Z,6.70
2023-03-26T03:09:50.815Z,7.60
2023-03-26T03:13:06.013Z,7.50
2023-03-26T03:15:56.504Z,6.30
2023-03-26T03:18:47.604Z,4.90
2023-03-26T03:21:38.605Z,6.40
2023-03-26T03:24:29.999Z,5.00
2023-03-26T03:27:23.000Z,6.90
2023-03-26T03:30:21.070Z,4.40
2023-03-26T03:33:33.137Z,4.20
2023-03-26T03:36:24.342Z,4.70
2023-03-26T03:39:22.436Z,5.00
2023-03-26T03:42:13.232Z,6.70
2023-03-26T03:45:04.214Z,5.70
2023-03-26T03:48:30.636Z,4.60
2023-03-26T03:51:21.665Z,4.50
2023-03-26T03:54:15.012Z,4.30
2023-03-26T03:57:08.459Z,5.20
2023-03-26T04:00:20.067Z,3.90
2023-03-26T04:03:15.104Z,3.80
2023-03-26T04:06:07.918Z,5.70
2023-03-26T04:08:58.744Z,4.20
2023-03-26T04:11:50.843Z,5.10
2023-03-26T04:15:03.230Z,5.20
2023-03-26T04:17:54.837Z,4.40
2023-03-26T04:20:46.886Z,6.50
2023-03-26T04:23:43.368Z,7.20
2023-03-26T04:26:43.041Z,4.80
2023-03-26T04:29:44.238Z,4.90
2023-03-26T04:32:41.411Z,3.60
2023-03-26T04:35:34.494Z,3.90
2023-03-26T04:38:26.402Z,4.70
2023-03-26T04:41:17.358Z,2.10
2023-03-26T04:44:08.351Z,5.20
2023-03-26T04:47:19.233Z,3.50
2023-03-26T04:50:11.963Z,2.80
2023-03-26T04:53:05.653Z,4.50
2023-03-26T04:56:21.229Z,3.70
2023-03-26T04:59:35.391Z,3.20
2023-03-26T05:02:28.942Z,4.40
2023-03-26T05:05:19.592Z,5.40
2023-03-26T05:08:10.943Z,7.30
2023-03-26T05:11:02.619Z,5.40
2023-03-26T05:13:58.299Z,4.70
2023-03-26T05:16:50.434Z,6.10
2023-03-26T05:19:41.436Z,5.60
2023-03-26T05:22:32.230Z,4.90
2023-03-26T05:25:47.261Z,3.50
2023-03-26T05:28:43.780Z,4.30
2023-03-26T05:31:45.245Z,4.20
2023-03-26T05:34:36.086Z,5.70
2023-03-26T05:37:27.211Z,4.90
2023-03-26T05:40:25.351Z,5.60
2023-03-26T05:43:19.695Z,4.60
2023-03-26T05:46:20.455Z,4.50
2023-03-26T05:49:11.417Z,5.30
2023-03-26T05:52:02.154Z,3.90
2023-03-26T05:55:13.420Z,3.40
2023-03-26T05:58:24.159Z,4.40
2023-03-26T06:01:33.641Z,3.60
2023-03-26T06:04:42.749Z,4.70
2023-03-26T06:07:52.309Z,3.50
2023-03-26T06:10:44.955Z,5.50
2023-03-26T06:13:35.417Z,4.80
2023-03-26T06:16:27.725Z,3.80
2023-03-26T06:19:26.428Z,3.70
2023-03-26T06:22:39.282Z,5.60
2023-03-26T06:26:09.037Z,4.00
2023-03-26T06:29:31.823Z,2.50
2023-03-26T06:32:41.498Z,3.00
2023-03-26T06:35:36.858Z,2.80
2023-03-26T06:38:31.896Z,3.10
2023-03-26T06:41:24.933Z,3.00
2023-03-26T06:44:38.478Z,2.70
2023-03-26T06:47:47.988Z,3.50
2023-03-26T06:50:57.501Z,2.30
2023-03-26T06:54:11.182Z,2.50
2023-03-26T06:57:17.208Z,2.60
2023-03-26T07:00:09.770Z,3.50
2023-03-26T07:03:19.551Z,3.10
2023-03-26T07:06:29.073Z,1.60
2023-03-26T07:12:49.935Z,2.00
2023-03-26T07:15:59.873Z,2.10
2023-03-26T07:19:02.007Z,2.90
2023-03-26T07:21:59.638Z,3.00
2023-03-26T07:25:30.168Z,2.70
2023-03-26T07:29:03.984Z,2.10
2023-03-26T07:32:22.945Z,2.00
2023-03-26T07:35:20.574Z,1.90
2023-03-26T07:38:38.619Z,2.80
2023-03-26T07:41:55.430Z,1.40
2023-03-26T07:45:09.938Z,2.30
2023-03-26T07:48:21.175Z,1.90
2023-03-26T07:51:41.463Z,2.50
2023-03-26T07:55:03.643Z,2.10
2023-03-26T07:58:21.202Z,2.40
2023-03-26T08:01:42.497Z,2.50
2023-03-26T08:04:45.684Z,2.20
2023-03-26T08:07:59.447Z,1.70
2023-03-26T08:11:04.691Z,3.00
2023-03-26T08:14:04.472Z,2.90
2023-03-26T08:16:57.090Z,2.50
2023-03-26T08:20:05.919Z,3.10
2023-03-26T08:22:58.657Z,2.40
2023-03-26T08:25:54.615Z,2.80
2023-03-26T08:28:58.814Z,3.00
2023-03-26T08:31:49.972Z,4.40
2023-03-26T08:34:40.931Z,2.50
2023-03-26T08:37:31.841Z,5.80
2023-03-26T08:40:32.698Z,2.40
2023-03-26T08:43:36.327Z,2.30
2023-03-26T08:46:43.550Z,2.60
2023-03-26T08:50:03.879Z,3.90
2023-03-26T08:53:16.100Z,2.30
2023-03-26T08:56:19.896Z,2.40
2023-03-26T08:59:33.668Z,2.20
2023-03-26T09:02:39.442Z,2.50
2023-03-26T09:05:49.119Z,3.00
2023-03-26T09:09:06.621Z,2.90
2023-03-26T09:12:45.650Z,3.90
2023-03-26T09:16:09.354Z,3.70
2023-03-26T09:19:23.654Z,3.50
2023-03-26T09:22:41.656Z,2.40
2023-03-26T09:25:54.785Z,2.70
2023-03-26T09:29:29.048Z,2.70
2023-03-26T09:32:53.174Z,3.70
2023-03-26T09:35:53.903Z,4.20
2023-03-26T09:38:46.744Z,2.80
2023-03-26T09:41:44.812Z,2.30
2023-03-26T09:45:03.913Z,2.60
2023-03-26T09:48:27.830Z,1.80
2023-03-26T09:51:29.948Z,1.70
2023-03-26T09:55:09.462Z,2.10
2023-03-26T09:58:12.551Z,1.80
2023-03-26T10:01:07.182Z,2.10
2023-03-26T10:04:02.740Z,2.00
2023-03-26T10:06:55.634Z,2.30
2023-03-26T10:09:52.191Z,1.90
2023-03-26T10:12:44.145Z,1.40
2023-03-26T10:15:37.347Z,1.90
2023-03-26T10:18:32.976Z,1.40
2023-03-26T10:21:28.678Z,1.50
2023-03-26T10:24:33.425Z,1.50
2023-03-26T10:27:36.142Z,1.40
2023-03-26T10:30:41.809Z,1.50
2023-03-26T10:33:38.692Z,2.20
2023-03-26T10:36:32.104Z,2.80
2023-03-26T10:39:43.657Z,1.60
2023-03-26T10:42:55.973Z,1.70
2023-03-26T10:46:14.968Z,4.00
2023-03-26T10:49:18.254Z,2.10
2023-03-26T10:52:09.178Z,2.50
2023-03-26T10:55:01.938Z,3.70
2023-03-26T10:57:56.479Z,4.40
2023-03-26T11:00:48.354Z,2.90
2023-03-26T11:03:52.031Z,2.40
2023-03-26T11:06:46.548Z,2.50
2023-03-26T11:09:41.110Z,1.90
2023-03-26T11:12:35.865Z,3.40
2023-03-26T11:15:28.095Z,2.70
2023-03-26T11:18:20.361Z,3.10
2023-03-26T11:21:18.840Z,2.40
2023-03-26T11:24:36.270Z,3.10
2023-03-26T11:27:32.604Z,2.50
2023-03-26T11:30:30.960Z,1.70
2023-03-26T11:33:23.868Z,1.80
2023-03-26T11:36:16.386Z,2.70
2023-03-26T11:39:11.225Z,2.80
2023-03-26T11:42:06.455Z,1.90
2023-03-26T11:45:05.828Z,1.50
2023-03-26T11:47:59.976Z,1.60
2023-03-26T11:50:53.019Z,3.90
2023-03-26T11:53:47.864Z,2.90
2023-03-26T11:56:42.197Z,3.00
2023-03-26T11:59:57.683Z,3.70
2023-03-26T12:02:49.044Z,1.50
2023-03-26T12:05:39.711Z,2.20
2023-03-26T12:08:35.840Z,1.40
2023-03-26T12:11:35.480Z,0.80
2023-03-26T12:14:27.392Z,2.30
2023-03-26T12:17:31.399Z,2.00
2023-03-26T12:20:38.829Z,1.30
2023-03-26T12:23:42.590Z,1.90
2023-03-26T12:26:37.787Z,1.70
2023-03-26T12:29:28.629Z,1.00
2023-03-26T12:32:19.371Z,1.20
2023-03-26T12:35:18.727Z,1.80
2023-03-26T12:38:23.084Z,2.90
2023-03-26T12:44:45.934Z,1.60
2023-03-26T12:44:55.266Z,2.50
2023-03-26T12:48:00.847Z,1.90
2023-03-26T12:51:02.906Z,2.30
2023-03-26T12:54:04.288Z,2.50
2023-03-26T12:57:12.388Z,2.00
2023-03-26T13:00:14.475Z,2.30
2023-03-26T13:03:21.137Z,2.80
2023-03-26T13:06:21.791Z,2.40
2023-03-26T13:09:19.745Z,3.00
2023-03-26T13:12:20.394Z,2.90
2023-03-26T13:15:15.897Z,3.00
2023-03-26T13:18:14.705Z,4.00
2023-03-26T13:21:08.055Z,4.20
2023-03-26T13:24:03.547Z,3.30
2023-03-26T13:27:00.739Z,5.30
2023-03-26T13:29:56.848Z,4.40
2023-03-26T13:32:57.525Z,4.70
2023-03-26T13:35:51.270Z,5.10
2023-03-26T13:38:58.820Z,4.80
2023-03-26T13:42:01.040Z,4.20
2023-03-26T13:45:04.867Z,3.10
2023-03-26T13:47:57.347Z,3.10
2023-03-26T13:50:52.489Z,3.50
2023-03-26T13:53:44.821Z,2.70
2023-03-26T13:56:36.862Z,2.70
2023-03-26T13:59:32.139Z,3.10
2023-03-26T14:02:27.906Z,4.20
2023-03-26T14:05:21.878Z,3.90
2023-03-26T14:08:16.346Z,3.50
2023-03-26T14:11:11.094Z,3.80
2023-03-26T14:14:04.074Z,4.00
2023-03-26T14:16:58.064Z,4.00
2023-03-26T14:20:24.784Z,5.10
2023-03-26T14:23:23.309Z,3.90
2023-03-26T14:26:19.787Z,4.40
2023-03-26T14:29:31.289Z,4.20
2023-03-26T14:32:29.854Z,3.90
2023-03-26T14:35:28.655Z,4.00
2023-03-26T14:38:41.846Z,5.10
2023-03-26T14:41:37.314Z,4.50
2023-03-26T14:44:47.592Z,4.20
2023-03-26T14:47:43.127Z,3.70
2023-03-26T14:50:49.126Z,3.40
2023-03-26T14:53:44.711Z,4.70
2023-03-26T14:57:33.756Z,3.30
2023-03-26T15:01:04.482Z,4.30
2023-03-26T15:04:38.437Z,3.50
2023-03-26T15:07:46.003Z,4.00
2023-03-26T15:11:00.105Z,4.10
2023-03-26T15:14:02.187Z,3.40
2023-03-26T15:17:20.606Z,3.10
2023-03-26T15:20:34.739Z,4.10
2023-03-26T15:24:00.600Z,3.70
2023-03-26T15:27:21.391Z,4.10
2023-03-26T15:30:45.185Z,4.20
2023-03-26T15:34:08.320Z,3.80
2023-03-26T15:37:30.531Z,4.50
2023-03-26T15:40:38.152Z,4.50
2023-03-26T15:43:29.412Z,4.40
2023-03-26T15:46:32.858Z,4.80
2023-03-26T15:49:26.168Z,4.80
2023-03-26T15:52:22.245Z,4.60
2023-03-26T15:55:27.890Z,4.00
2023-03-26T15:58:23.094Z,4.50
2023-03-26T16:01:19.959Z,5.30
2023-03-26T16:04:17.381Z,4.30
2023-03-26T16:07:09.741Z,5.70
2023-03-26T16:10:04.658Z,6.10
2023-03-26T16:13:19.089Z,6.50
2023-03-26T16:16:28.313Z,5.90
2023-03-26T16:19:51.953Z,7.20
2023-03-26T16:22:46.513Z,6.20
2023-03-26T16:25:38.469Z,6.10
2023-03-26T16:28:32.624Z,7.10
2023-03-26T16:31:37.258Z,6.00
2023-03-26T16:34:31.542Z,6.40
2023-03-26T16:37:45.985Z,6.20
2023-03-26T16:40:38.408Z,5.90
2023-03-26T16:43:51.164Z,6.40
2023-03-26T16:46:48.989Z,6.40
2023-03-26T16:49:47.273Z,7.70
2023-03-26T16:53:02.164Z,6.20
2023-03-26T16:55:56.638Z,6.00
2023-03-26T16:58:55.022Z,7.80
2023-03-26T17:01:49.851Z,9.10
2023-03-26T17:04:41.286Z,6.10
2023-03-26T17:07:36.439Z,9.40
2023-03-26T17:10:32.296Z,8.20
2023-03-26T17:13:26.099Z,6.50
2023-03-26T17:16:19.915Z,7.40
2023-03-26T17:19:17.769Z,8.00
2023-03-26T17:22:11.494Z,7.50
2023-03-26T17:25:04.669Z,8.60
2023-03-26T17:28:23.870Z,9.20
2023-03-26T17:31:21.172Z,9.10
2023-03-26T17:34:46.743Z,9.40
2023-03-26T17:37:48.263Z,9.40
2023-03-26T17:40:53.160Z,10.80
2023-03-26T17:43:46.456Z,8.30
2023-03-26T17:46:38.798Z,8.70
2023-03-26T17:49:31.267Z,9.20
2023-03-26T17:52:25.311Z,8.50
2023-03-26T17:55:18.557Z,10.20
2023-03-26T17:58:20.703Z,11.60
2023-03-26T18:01:18.478Z,10.90
2023-03-26T18:04:12.612Z,11.30
2023-03-26T18:07:19.160Z,10.10
2023-03-26T18:10:19.682Z,12.20
2023-03-26T18:13:27.141Z,11.60
2023-03-26T18:16:17.988Z,13.50
2023-03-26T18:19:18.353Z,13.10
2023-03-26T18:22:13.759Z,14.40
2023-03-26T18:25:05.369Z,10.60
2023-03-26T18:27:56.000Z,13.00
2023-03-26T18:30:49.165Z,11.90
2023-03-26T18:33:46.592Z,11.90
2023-03-26T18:36:38.596Z,13.60
2023-03-26T18:39:29.018Z,12.90
2023-03-26T18:42:23.313Z,14.50
2023-03-26T18:45:22.041Z,15.50
2023-03-26T18:48:17.849Z,14.60
2023-03-26T18:51:08.807Z,14.70
2023-03-26T18:54:00.251Z,15.90
2023-03-26T18:56:52.330Z,15.30
2023-03-26T18:59:45.237Z,15.00
2023-03-26T19:02:35.957Z,16.70
2023-03-26T19:05:28.449Z,16.40
2023-03-26T19:08:19.217Z,17.10
2023-03-26T19:11:09.939Z,16.90
2023-03-26T19:14:08.424Z,15.30
2023-03-26T19:17:00.932Z,18.10
2023-03-26T19:19:52.898Z,21.80
2023-03-26T19:22:44.747Z,20.40
2023-03-26T19:25:38.845Z,20.30
2023-03-26T19:28:31.116Z,22.60
2023-03-26T19:31:26.066Z,19.00
2023-03-26T19:34:27.379Z,19.40
2023-03-26T19:37:22.857Z,20.60
2023-03-26T19:40:29.971Z,22.00
2023-03-26T19:43:20.823Z,22.30
2023-03-26T19:46:16.615Z,19.00
2023-03-26T19:49:08.062Z,15.80
2023-03-26T19:52:11.949Z,18.50
2023-03-26T19:55:13.744Z,18.90
2023-03-26T19:58:06.040Z,17.90
2023-03-26T20:00:57.282Z,23.20
2023-03-26T20:03:49.179Z,23.00
2023-03-26T20:06:43.613Z,19.40
2023-03-26T20:09:36.506Z,21.70
2023-03-26T20:12:27.217Z,19.40
2023-03-26T20:15:21.590Z,17.80
2023-03-26T20:18:14.133Z,19.60
2023-03-26T20:21:06.732Z,18.00
2023-03-26T20:23:57.489Z,20.20
2023-03-26T20:26:48.459Z,21.90
2023-03-26T20:29:39.267Z,19.50
2023-03-26T20:32:30.506Z,22.80
2023-03-26T20:35:35.563Z,18.10
2023-03-26T20:38:39.063Z,21.40
2023-03-26T20:41:30.708Z,20.50
2023-03-26T20:44:22.574Z,27.10
2023-03-26T20:47:14.401Z,22.90
2023-03-26T20:50:05.056Z,24.10
2023-03-26T20:52:55.986Z,22.30
2023-03-26T20:55:47.958Z,20.60
2023-03-26T20:58:40.177Z,23.60
2023-03-26T21:01:31.461Z,21.60
2023-03-26T21:04:22.448Z,20.20
2023-03-26T21:07:18.228Z,20.60
2023-03-26T21:10:19.408Z,27.80
2023-03-26T21:13:12.543Z,22.20
2023-03-26T21:16:03.838Z,22.60
2023-03-26T21:18:55.742Z,21.10
2023-03-26T21:21:51.300Z,23.70
2023-03-26T21:24:51.615Z,22.20
2023-03-26T21:27:45.963Z,28.20
2023-03-26T21:30:37.510Z,36.20
2023-03-26T21:33:28.537Z,50.90
2023-03-26T21:36:20.448Z,50.80
2023-03-26T21:39:12.649Z,42.40
2023-03-26T21:42:05.928Z,97.60
2023-03-26T21:44:57.785Z,92.90
2023-03-26T21:47:49.294Z,101.10
2023-03-26T21:50:41.087Z,91.30
2023-03-26T21:53:32.461Z,107.60
2023-03-26T21:56:28.874Z,108.00
2023-03-26T21:59:22.374Z,111.30
2023-03-26T22:02:17.479Z,110.00
2023-03-26T22:05:12.585Z,115.00
2023-03-26T22:08:04.218Z,119.50
2023-03-26T22:10:55.424Z,122.20
2023-03-26T22:13:46.955Z,119.50
2023-03-26T22:16:37.509Z,118.80
2023-03-26T22:19:30.149Z,111.80
2023-03-26T22:22:22.196Z,114.70
2023-03-26T22:25:14.883Z,109.80
2023-03-26T22:28:05.503Z,101.90
2023-03-26T22:30:56.250Z,105.20
2023-03-26T22:33:47.355Z,94.60
2023-03-26T22:36:40.234Z,95.40
2023-03-26T22:39:31.370Z,93.00
2023-03-26T22:42:21.915Z,96.20
2023-03-26T22:45:13.538Z,91.70
2023-03-26T22:48:04.759Z,93.20
2023-03-26T22:51:02.795Z,83.30
2023-03-26T22:53:53.467Z,77.90
2023-03-26T22:56:45.863Z,81.60
2023-03-26T22:59:36.287Z,73.10
2023-03-26T23:02:27.264Z,79.80
2023-03-26T23:05:18.760Z,86.30
2023-03-26T23:08:09.648Z,83.60
2023-03-26T23:11:00.510Z,80.60
2023-03-26T23:13:51.340Z,81.40
2023-03-26T23:16:42.467Z,82.50
2023-03-26T23:19:35.052Z,97.90
2023-03-26T23:22:25.785Z,100.70
2023-03-26T23:25:16.462Z,101.00
2023-03-26T23:28:07.484Z,104.10
2023-03-26T23:30:58.591Z,100.90
2023-03-26T23:33:50.570Z,106.40
2023-03-26T23:36:41.907Z,107.80
2023-03-26T23:39:33.691Z,105.50
2023-03-26T23:42:28.271Z,105.40
2023-03-26T23:45:20.641Z,106.30
2023-03-26T23:48:10.985Z,90.90
2023-03-26T23:51:03.147Z,97.90
2023-03-26T23:53:54.997Z,89.00
2023-03-26T23:56:46.047Z,93.90
2023-03-26T23:59:36.525Z,91.60
